createdAt,value
2023-01-10T00:00:26.819Z,31.91
2023-01-10T00:01:26.691Z,31.58
2023-01-10T00:02:26.725Z,32.39
2023-01-10T00:03:26.692Z,35.16
2023-01-10T00:04:26.771Z,35.07
2023-01-10T00:05:26.653Z,35.93
2023-01-10T07:07:36.074Z,99.84
2023-01-10T08:02:34.589Z,128.67
2023-01-10T08:03:34.568Z,131.27
2023-01-10T08:04:34.371Z,134.23
2023-01-10T08:05:34.365Z,133.59
2023-01-10T08:06:34.356Z,137.33
2023-01-10T08:09:34.334Z,146.59
2023-01-10T08:11:34.315Z,148.20
2023-01-10T08:12:34.289Z,150.99
2023-01-10T08:13:34.316Z,152.18
2023-01-10T08:14:34.361Z,157.36
2023-01-10T08:15:34.270Z,160.45
2023-01-10T08:16:34.275Z,163.15
2023-01-10T08:17:34.254Z,169.18
2023-01-10T08:19:34.227Z,166.91
2023-01-10T08:20:34.221Z,173.75
2023-01-10T08:22:34.547Z,174.83
2023-01-10T08:23:34.309Z,180.18
2023-01-10T08:24:34.195Z,184.77
2023-01-10T08:25:34.190Z,182.49
2023-01-10T08:27:34.161Z,191.63
2023-01-10T08:28:34.155Z,190.61
2023-01-10T08:29:34.151Z,195.21
2023-01-10T08:30:34.147Z,197.44
2023-01-10T08:32:34.125Z,199.17
2023-01-10T08:33:34.135Z,211.10
2023-01-10T08:34:34.137Z,212.87
2023-01-10T08:35:34.084Z,217.07
2023-01-10T08:37:34.072Z,206.11
2023-01-10T08:38:34.090Z,207.94
2023-01-10T08:40:34.048Z,213.68
2023-01-10T08:41:34.042Z,214.19
2023-01-10T08:42:34.033Z,214.47
2023-01-10T08:43:34.043Z,217.75
2023-01-10T08:45:34.062Z,219.59
2023-01-10T08:48:33.969Z,224.81
2023-01-10T08:49:33.970Z,222.17
2023-01-10T08:50:33.966Z,221.03
2023-01-10T08:51:34.151Z,218.57
2023-01-10T08:52:33.936Z,222.44
2023-01-10T08:53:33.937Z,224.19
2023-01-10T08:54:33.917Z,230.55
2023-01-10T08:55:33.935Z,224.09
2023-01-10T08:56:34.131Z,164.21
2023-01-10T08:57:33.899Z,150.25
2023-01-10T08:58:33.921Z,134.38
2023-01-10T09:00:33.867Z,120.33
2023-01-10T09:01:34.315Z,115.89
2023-01-10T09:03:34.319Z,141.52
2023-01-10T09:05:33.846Z,135.22
2023-01-10T09:06:34.147Z,126.43
2023-01-10T09:07:33.889Z,129.36
2023-01-10T09:08:34.150Z,128.65
2023-01-10T09:09:34.179Z,128.26
2023-01-10T09:11:33.884Z,132.83
2023-01-10T09:17:34.131Z,153.32
2023-01-10T10:07:35.367Z,120.15
2023-01-10T10:27:34.230Z,154.39
2023-01-10T10:29:36.522Z,126.55
2023-01-10T10:49:33.872Z,47.50
2023-01-10T15:16:30.379Z,88.87
2023-01-10T18:42:28.440Z,29.06
2023-01-10T18:43:28.430Z,29.82
2023-01-10T18:44:28.437Z,29.89
2023-01-10T18:45:28.416Z,31.48
2023-01-10T18:46:28.603Z,29.13
2023-01-10T18:47:28.424Z,27.99
2023-01-10T18:48:28.394Z,26.25
2023-01-10T18:49:28.386Z,26.22
2023-01-10T18:50:28.367Z,27.09
2023-01-10T18:51:28.357Z,29.72
2023-01-10T18:52:28.348Z,29.18
2023-01-10T18:53:28.337Z,30.92
2023-01-10T18:54:28.345Z,26.96
2023-01-10T18:55:28.331Z,32.37
2023-01-10T18:56:28.310Z,30.71
2023-01-10T18:57:28.303Z,31.74
2023-01-10T18:58:28.304Z,32.63
2023-01-10T18:59:28.282Z,30.35
2023-01-10T19:00:28.273Z,30.79
2023-01-10T19:01:28.298Z,28.59
2023-01-10T19:02:28.293Z,32.99
2023-01-10T19:03:28.269Z,27.94
2023-01-10T19:04:28.235Z,31.29
2023-01-10T19:05:28.225Z,28.24
2023-01-10T19:06:28.219Z,27.56
2023-01-10T19:07:28.225Z,31.03
2023-01-10T19:08:28.202Z,33.91
2023-01-10T19:09:28.381Z,29.15
2023-01-10T19:10:29.043Z,32.22
2023-01-10T19:11:28.176Z,32.36
2023-01-10T19:12:28.158Z,31.25
2023-01-10T19:27:28.393Z,30.30
2023-01-10T19:41:28.885Z,26.19
2023-01-10T19:53:28.393Z,27.67
